createdAt,value
2022-09-15T00:03:34.189Z,100.00
2022-09-15T00:06:37.475Z,100.00
2022-09-15T00:11:21.393Z,100.00
2022-09-15T00:17:04.556Z,100.00
2022-09-15T00:20:08.046Z,100.00
2022-09-15T00:23:11.743Z,100.00
2022-09-15T00:26:20.578Z,100.00
2022-09-15T00:45:18.794Z,100.00
2022-09-15T00:48:22.547Z,100.00
2022-09-15T00:55:15.209Z,100.00
2022-09-15T00:58:37.915Z,100.00
2022-09-15T01:01:52.537Z,100.00
2022-09-15T01:04:58.417Z,100.00
2022-09-15T01:08:05.172Z,100.00
2022-09-15T01:11:08.477Z,100.00
2022-09-15T01:14:11.597Z,100.00
2022-09-15T01:17:21.428Z,100.00
2022-09-15T01:20:51.348Z,100.00
2022-09-15T01:32:42.733Z,100.00
2022-09-15T01:36:31.720Z,100.00
2022-09-15T02:00:32.924Z,100.00
2022-09-15T02:08:21.686Z,100.00
2022-09-15T02:19:31.994Z,100.00
2022-09-15T02:22:36.438Z,100.00
2022-09-15T02:25:41.141Z,100.00
2022-09-15T02:28:44.309Z,100.00
2022-09-15T02:31:52.852Z,100.00
2022-09-15T02:34:59.025Z,100.00
2022-09-15T02:38:02.063Z,100.00
2022-09-15T02:41:06.035Z,100.00
2022-09-15T02:44:09.752Z,100.00
2022-09-15T02:47:24.948Z,100.00
2022-09-15T02:50:37.869Z,100.00
2022-09-15T03:01:32.092Z,100.00
2022-09-15T03:04:35.649Z,100.00
2022-09-15T03:07:38.928Z,100.00
2022-09-15T03:14:10.652Z,100.00
2022-09-15T03:17:13.741Z,100.00
2022-09-15T03:44:19.184Z,100.00
2022-09-15T03:47:22.860Z,100.00
2022-09-15T03:50:34.811Z,100.00
2022-09-15T03:54:01.809Z,99.04
2022-09-15T04:13:08.346Z,99.17
2022-09-15T04:16:26.189Z,98.77
2022-09-15T04:19:32.513Z,98.16
2022-09-15T11:17:22.428Z,48.87
2022-09-15T11:24:41.114Z,50.06
2022-09-15T11:27:46.118Z,50.83
2022-09-15T11:35:44.562Z,53.23
2022-09-15T11:39:13.011Z,54.37
2022-09-15T11:42:33.302Z,53.81
2022-09-15T11:45:37.387Z,54.54
2022-09-15T11:48:45.562Z,53.19
2022-09-15T11:51:51.688Z,53.02
2022-09-15T11:55:02.795Z,54.09
2022-09-15T12:02:00.811Z,54.59
2022-09-15T12:05:17.582Z,55.28
2022-09-15T12:08:32.874Z,55.80
2022-09-15T12:11:51.886Z,56.33
2022-09-15T12:28:13.334Z,56.67
2022-09-15T12:46:54.084Z,55.73
2022-09-15T13:19:23.989Z,56.85
2022-09-15T13:22:30.278Z,57.26
2022-09-15T13:29:06.843Z,57.94
2022-09-15T20:31:45.800Z,100.00
2022-09-15T20:34:49.315Z,100.00
2022-09-15T20:37:53.007Z,100.00
2022-09-15T20:40:59.269Z,100.00
2022-09-15T20:44:02.350Z,100.00
2022-09-15T20:47:05.348Z,100.00
2022-09-15T20:50:08.269Z,100.00
2022-09-15T20:53:11.417Z,100.00
2022-09-15T20:56:17.081Z,100.00
2022-09-15T20:59:20.988Z,100.00
2022-09-15T21:02:24.483Z,100.00
2022-09-15T21:05:27.974Z,100.00
2022-09-15T21:08:34.594Z,100.00
2022-09-15T21:11:39.571Z,100.00
2022-09-15T21:14:43.629Z,100.00
2022-09-15T21:17:46.639Z,100.00
2022-09-15T21:20:57.797Z,100.00
2022-09-15T21:24:04.305Z,100.00
2022-09-15T21:27:27.068Z,100.00
2022-09-15T21:37:49.510Z,100.00
2022-09-15T21:41:09.662Z,100.00
2022-09-15T21:44:19.953Z,100.00
2022-09-15T21:47:23.217Z,100.00
2022-09-15T21:50:26.644Z,100.00
2022-09-15T21:53:30.421Z,100.00
2022-09-15T21:56:37.532Z,100.00
2022-09-15T22:07:29.206Z,100.00
2022-09-15T22:10:50.534Z,100.00
2022-09-15T22:18:44.695Z,100.00
2022-09-15T22:26:18.794Z,100.00
2022-09-15T22:29:25.285Z,100.00
2022-09-15T22:33:20.871Z,100.00
2022-09-15T22:47:49.110Z,100.00
2022-09-15T22:51:02.101Z,100.00
2022-09-15T22:57:20.197Z,100.00
